Time,TemperatureF,DewpointF,PressureIn,WindDirection,WindDirectionDegrees,WindSpeedMPH,WindSpeedGustMPH,Humidity,HourlyPrecipIn,Conditions,Clouds,dailyrainin,SoftwareType,DateUTC
2013-06-10 00:00:00,68.3,68.3,29.93,SSW,207,0.0,1.0,100,0.00,,,0.51,Wunderground v.1.13,2013-06-10 04:00:00,
2013-06-10 00:10:00,68.3,68.3,29.93,SSW,207,0.0,1.0,100,0.00,,,0.51,Wunderground v.1.13,2013-06-10 04:10:00,
2013-06-10 00:20:00,68.3,68.3,29.93,SSW,207,0.0,1.0,100,0.00,,,0.51,Wunderground v.1.13,2013-06-10 04:20:00,
2013-06-10 00:30:00,68.3,68.3,29.93,SSW,207,0.0,1.0,100,0.00,,,0.00,Wunderground v.1.13,2013-06-10 04:30:00,
2013-06-10 00:40:00,68.3,68.3,29.93,SSW,207,0.0,1.0,100,0.00,,,0.00,Wunderground v.1.13,2013-06-10 04:40:00,
2013-06-10 00:50:00,68.3,68.3,29.93,SSW,207,0.0,1.0,100,0.00,,,0.00,Wunderground v.1.13,2013-06-10 04:50:00,
2013-06-10 01:00:00,68.3,68.3,29.91,SSW,207,0.0,1.0,100,0.00,,,0.00,Wunderground v.1.13,2013-06-10 05:00:00,
2013-06-10 01:10:00,68.3,68.3,29.91,SSW,207,0.0,1.0,100,0.00,,,0.00,Wunderground v.1.13,2013-06-10 05:10:00,
2013-06-10 01:20:00,68.3,68.3,29.91,SSW,207,0.0,1.0,100,0.00,,,0.00,Wunderground v.1.13,2013-06-10 05:20:00,
2013-06-10 01:30:00,68.3,68.3,29.91,SSW,207,0.0,1.0,100,0.00,,,0.00,Wunderground v.1.13,2013-06-10 05:30:00,
2013-06-10 01:40:00,68.2,68.2,29.90,SSW,207,0.0,1.0,100,0.00,,,0.00,Wunderground v.1.13,2013-06-10 05:40:00,
2013-06-10 01:50:00,68.2,68.2,29.90,SSW,207,0.0,1.0,100,0.00,,,0.00,Wunderground v.1.13,2013-06-10 05:50:00,
2013-06-10 02:00:00,68.0,68.0,29.89,SSW,207,0.0,1.0,100,0.00,,,0.00,Wunderground v.1.13,2013-06-10 06:00:00,
2013-06-10 02:10:00,68.0,68.0,29.90,SSW,207,0.0,1.0,100,0.00,,,0.00,Wunderground v.1.13,2013-06-10 06:10:00,
2013-06-10 02:20:00,68.0,68.0,29.90,SSW,207,0.0,1.0,100,0.00,,,0.00,Wunderground v.1.13,2013-06-10 06:20:00,
2013-06-10 02:30:00,68.0,68.0,29.89,SSW,207,0.0,1.0,100,0.00,,,0.00,Wunderground v.1.13,2013-06-10 06:30:00,
2013-06-10 02:40:00,68.0,68.0,29.88,SSW,207,0.0,1.0,100,0.00,,,0.00,Wunderground v.1.13,2013-06-10 06:40:00,
2013-06-10 02:50:00,68.0,68.0,29.88,SSW,207,0.0,1.0,100,0.00,,,0.00,Wunderground v.1.13,2013-06-10 06:50:00,
2013-06-10 03:00:00,68.0,68.0,29.89,SSW,207,0.0,1.0,100,0.00,,,0.00,Wunderground v.1.13,2013-06-10 07:00:00,
2013-06-10 03:10:00,68.0,68.0,29.88,SSW,207,0.0,1.0,100,0.00,,,0.00,Wunderground v.1.13,2013-06-10 07:10:00,
2013-06-10 03:20:00,68.0,68.0,29.88,SSW,207,0.0,1.0,100,0.00,,,0.00,Wunderground v.1.13,2013-06-10 07:20:00,
2013-06-10 03:30:00,67.8,67.8,29.88,SSW,207,0.0,1.0,100,0.00,,,0.00,Wunderground v.1.13,2013-06-10 07:30:00,
2013-06-10 03:40:00,67.8,67.8,29.88,SSW,207,0.0,1.0,100,0.00,,,0.00,Wunderground v.1.13,2013-06-10 07:40:00,
2013-06-10 03:50:00,67.8,67.8,29.88,SSW,207,0.0,1.0,100,0.00,,,0.00,Wunderground v.1.13,2013-06-10 07:50:00,
2013-06-10 04:00:00,67.7,67.7,29.87,SSW,207,0.0,1.0,100,0.00,,,0.00,Wunderground v.1.13,2013-06-10 08:00:00,
2013-06-10 04:10:00,67.7,67.7,29.87,SSW,207,0.0,1.0,100,0.00,,,0.00,Wunderground v.1.13,2013-06-10 08:10:00,
2013-06-10 04:20:00,67.7,67.7,29.87,SSW,207,0.0,1.0,100,0.00,,,0.00,Wunderground v.1.13,2013-06-10 08:20:00,
2013-06-10 04:30:00,67.7,67.7,29.87,SSW,207,0.0,1.0,100,0.00,,,0.00,Wunderground v.1.13,2013-06-10 08:30:00,
2013-06-10 04:40:00,67.8,67.8,29.87,SSW,207,0.0,1.0,100,0.00,,,0.00,Wunderground v.1.13,2013-06-10 08:40:00,
2013-06-10 04:50:00,68.0,68.0,29.87,SSW,207,0.0,1.0,100,0.00,,,0.00,Wunderground v.1.13,2013-06-10 08:50:00,
2013-06-10 05:00:00,68.2,68.2,29.87,SSW,207,0.0,1.0,100,0.00,,,0.00,Wunderground v.1.13,2013-06-10 09:00:00,
2013-06-10 05:10:00,68.3,68.3,29.88,SSW,207,0.0,1.0,100,0.00,,,0.01,Wunderground v.1.13,2013-06-10 09:10:00,
2013-06-10 05:20:00,68.5,68.5,29.88,SSW,207,0.0,1.0,100,0.31,,,0.04,Wunderground v.1.13,2013-06-10 09:20:00,
2013-06-10 05:30:00,68.5,68.5,29.88,SSW,207,0.0,1.0,100,0.10,,,0.05,Wunderground v.1.13,2013-06-10 09:30:00,
2013-06-10 05:40:00,68.2,68.2,29.88,SSW,207,0.0,1.0,100,0.07,,,0.06,Wunderground v.1.13,2013-06-10 09:40:00,
2013-06-10 05:50:00,67.8,67.8,29.88,SSW,207,0.0,1.0,100,0.00,,,0.06,Wunderground v.1.13,2013-06-10 09:50:00,
2013-06-10 06:00:00,67.7,67.7,29.88,SSW,207,0.0,1.0,100,0.00,,,0.06,Wunderground v.1.13,2013-06-10 10:00:00,
2013-06-10 06:10:00,67.7,67.7,29.89,SSW,207,0.0,1.0,100,0.00,,,0.06,Wunderground v.1.13,2013-06-10 10:10:00,
2013-06-10 06:20:00,67.7,67.7,29.89,SSW,207,0.0,1.0,100,0.00,,,0.06,Wunderground v.1.13,2013-06-10 10:20:00,
2013-06-10 06:30:00,67.7,67.7,29.89,SSW,207,0.0,1.0,100,0.00,,,0.06,Wunderground v.1.13,2013-06-10 10:30:00,
2013-06-10 06:40:00,67.7,67.7,29.89,SSW,207,0.0,1.0,100,0.00,,,0.06,Wunderground v.1.13,2013-06-10 10:40:00,
2013-06-10 06:50:00,67.7,67.7,29.89,SSW,207,0.0,1.0,100,0.00,,,0.07,Wunderground v.1.13,2013-06-10 10:50:00,
2013-06-10 07:00:00,68.0,68.0,29.90,SSW,207,0.0,1.0,100,0.00,,,0.07,Wunderground v.1.13,2013-06-10 11:00:00,
2013-06-10 07:10:00,68.0,68.0,29.89,SSW,207,0.0,1.0,100,0.00,,,0.07,Wunderground v.1.13,2013-06-10 11:10:00,
2013-06-10 07:20:00,68.2,68.2,29.89,SSW,207,0.0,1.0,100,0.00,,,0.07,Wunderground v.1.13,2013-06-10 11:20:00,
2013-06-10 07:30:00,68.3,68.3,29.89,SSW,207,0.0,1.0,100,0.00,,,0.07,Wunderground v.1.13,2013-06-10 11:30:00,
2013-06-10 07:40:00,68.3,68.3,29.90,SSW,207,0.0,1.0,100,0.00,,,0.07,Wunderground v.1.13,2013-06-10 11:40:00,
2013-06-10 07:50:00,68.3,68.3,29.90,SSW,207,0.0,1.0,100,0.00,,,0.07,Wunderground v.1.13,2013-06-10 11:50:00,
2013-06-10 08:00:00,68.5,68.5,29.90,SSW,207,0.0,1.0,100,0.00,,,0.07,Wunderground v.1.13,2013-06-10 12:00:00,
2013-06-10 08:10:00,68.7,68.7,29.89,SSW,207,0.0,1.0,100,0.00,,,0.07,Wunderground v.1.13,2013-06-10 12:10:00,
2013-06-10 08:20:00,68.7,68.7,29.89,SSW,207,0.0,1.0,100,0.00,,,0.07,Wunderground v.1.13,2013-06-10 12:20:00,
2013-06-10 08:30:00,68.8,68.8,29.89,SSW,207,0.0,1.0,100,0.00,,,0.07,Wunderground v.1.13,2013-06-10 12:30:00,
2013-06-10 08:40:00,69.3,69.3,29.89,SSW,207,0.0,1.0,100,0.00,,,0.07,Wunderground v.1.13,2013-06-10 12:40:00,
2013-06-10 08:50:00,69.8,69.8,29.89,SSW,207,0.0,1.0,100,0.00,,,0.07,Wunderground v.1.13,2013-06-10 12:50:00,
2013-06-10 09:00:00,70.3,70.3,29.89,SSW,207,0.0,1.0,100,0.00,,,0.07,Wunderground v.1.13,2013-06-10 13:00:00,
2013-06-10 09:10:00,70.3,70.3,29.89,SSW,207,0.0,1.0,100,0.00,,,0.07,Wunderground v.1.13,2013-06-10 13:10:00,
2013-06-10 09:20:00,70.2,70.2,29.89,SSW,207,0.0,1.0,100,0.43,,,0.10,Wunderground v.1.13,2013-06-10 13:20:00,
2013-06-10 09:30:00,70.0,70.0,29.91,SSW,207,0.0,1.0,100,0.09,,,0.11,Wunderground v.1.13,2013-06-10 13:30:00,
2013-06-10 09:40:00,70.2,70.2,29.91,SSW,207,0.0,1.0,100,0.07,,,0.12,Wunderground v.1.13,2013-06-10 13:40:00,
2013-06-10 09:50:00,69.8,69.8,29.91,SSW,207,0.0,1.0,100,0.09,,,0.14,Wunderground v.1.13,2013-06-10 13:50:00,
2013-06-10 10:00:00,69.5,69.5,29.92,SSW,207,0.0,1.0,100,0.04,,,0.14,Wunderground v.1.13,2013-06-10 14:00:00,
2013-06-10 10:10:00,69.7,69.7,29.90,SSW,207,0.0,1.0,100,0.00,,,0.15,Wunderground v.1.13,2013-06-10 14:10:00,
2013-06-10 10:20:00,69.5,69.5,29.90,SSW,207,0.0,1.0,100,0.00,,,0.15,Wunderground v.1.13,2013-06-10 14:20:00,
2013-06-10 10:30:00,70.0,70.0,29.89,SSW,207,0.0,1.0,100,0.00,,,0.15,Wunderground v.1.13,2013-06-10 14:30:00,
2013-06-10 10:40:00,70.2,70.2,29.90,SSW,207,0.0,1.0,100,0.00,,,0.15,Wunderground v.1.13,2013-06-10 14:40:00,
2013-06-10 10:50:00,70.7,70.7,29.90,SSW,207,0.0,1.0,100,0.00,,,0.15,Wunderground v.1.13,2013-06-10 14:50:00,
2013-06-10 11:00:00,71.2,71.2,29.91,SSW,207,0.0,1.0,100,0.00,,,0.15,Wunderground v.1.13,2013-06-10 15:00:00,
2013-06-10 11:10:00,71.2,70.6,29.91,WSW,239,0.0,1.0,98,0.00,,,0.15,Wunderground v.1.13,2013-06-10 15:10:00,
2013-06-10 11:20:00,71.4,70.2,29.91,NNE,15,0.0,1.0,96,0.00,,,0.15,Wunderground v.1.13,2013-06-10 15:20:00,
2013-06-10 11:30:00,71.7,70.2,29.91,NW,321,0.0,1.0,95,0.00,,,0.15,Wunderground v.1.13,2013-06-10 15:30:00,
2013-06-10 11:40:00,71.9,68.2,29.92,NNW,333,0.0,1.0,88,0.00,,,0.15,Wunderground v.1.13,2013-06-10 15:40:00,
2013-06-10 11:50:00,71.7,67.3,29.92,SW,220,0.0,1.0,86,0.00,,,0.15,Wunderground v.1.13,2013-06-10 15:50:00,
2013-06-10 12:00:00,71.7,67.6,29.92,WNW,298,0.0,1.0,87,0.00,,,0.15,Wunderground v.1.13,2013-06-10 16:00:00,
2013-06-10 12:10:00,71.5,67.4,29.92,WNW,294,0.0,1.0,87,0.00,,,0.15,Wunderground v.1.13,2013-06-10 16:10:00,
2013-06-10 12:20:00,71.4,67.0,29.92,NNW,333,0.0,1.0,86,0.00,,,0.15,Wunderground v.1.13,2013-06-10 16:20:00,
2013-06-10 12:30:00,71.7,67.3,29.91,NNW,333,0.0,1.0,86,0.00,,,0.15,Wunderground v.1.13,2013-06-10 16:30:00,
2013-06-10 12:40:00,72.2,66.4,29.92,SW,234,0.0,1.0,82,0.00,,,0.15,Wunderground v.1.13,2013-06-10 16:40:00,
2013-06-10 12:50:00,72.4,66.2,29.92,NNW,346,0.0,1.0,81,0.00,,,0.15,Wunderground v.1.13,2013-06-10 16:50:00,
2013-06-10 13:00:00,72.7,65.4,29.92,NNW,331,1.0,1.0,78,0.00,,,0.15,Wunderground v.1.13,2013-06-10 17:00:00,
2013-06-10 13:10:00,73.2,65.6,29.92,NNE,22,0.0,1.0,77,0.00,,,0.15,Wunderground v.1.13,2013-06-10 17:10:00,
2013-06-10 13:20:00,73.9,66.6,29.92,West,266,0.0,1.0,78,0.00,,,0.15,Wunderground v.1.13,2013-06-10 17:20:00,
2013-06-10 13:30:00,74.3,65.9,29.90,WNW,285,0.0,1.0,75,0.00,,,0.15,Wunderground v.1.13,2013-06-10 17:30:00,
2013-06-10 13:40:00,74.6,64.6,29.90,West,264,0.0,1.0,71,0.00,,,0.15,Wunderground v.1.13,2013-06-10 17:40:00,
2013-06-10 13:50:00,75.9,63.7,29.90,West,270,1.0,1.0,66,0.00,,,0.15,Wunderground v.1.13,2013-06-10 17:50:00,
2013-06-10 14:00:00,76.9,63.3,29.90,NW,304,0.0,1.0,63,0.00,,,0.15,Wunderground v.1.13,2013-06-10 18:00:00,
2013-06-10 14:10:00,77.6,64.5,29.89,North,360,0.0,1.0,64,0.00,,,0.15,Wunderground v.1.13,2013-06-10 18:10:00,
2013-06-10 14:20:00,78.0,64.4,29.89,NNW,341,0.0,1.0,63,0.00,,,0.15,Wunderground v.1.13,2013-06-10 18:20:00,
2013-06-10 14:30:00,78.5,63.5,29.89,NNE,23,1.0,2.0,60,0.00,,,0.15,Wunderground v.1.13,2013-06-10 18:30:00,
2013-06-10 14:40:00,78.5,62.5,29.89,WNW,296,1.0,4.0,58,0.00,,,0.15,Wunderground v.1.13,2013-06-10 18:40:00,
2013-06-10 14:50:00,78.9,65.2,29.89,SSW,197,1.0,1.0,63,0.00,,,0.15,Wunderground v.1.13,2013-06-10 18:50:00,
2013-06-10 15:00:00,79.3,63.2,29.89,WNW,290,0.0,1.0,58,0.00,,,0.15,Wunderground v.1.13,2013-06-10 19:00:00,
2013-06-10 15:10:00,79.5,64.4,29.88,WNW,300,1.0,1.0,60,0.00,,,0.15,Wunderground v.1.13,2013-06-10 19:10:00,
2013-06-10 15:20:00,79.8,63.7,29.88,NW,308,1.0,1.0,58,0.00,,,0.15,Wunderground v.1.13,2013-06-10 19:20:00,
2013-06-10 15:30:00,79.5,63.4,29.88,NNW,346,1.0,1.0,58,0.00,,,0.15,Wunderground v.1.13,2013-06-10 19:30:00,
2013-06-10 15:40:00,80.0,62.4,29.88,NW,307,1.0,1.0,55,0.00,,,0.15,Wunderground v.1.13,2013-06-10 19:40:00,
2013-06-10 15:50:00,80.6,61.9,29.88,WNW,295,1.0,1.0,53,0.00,,,0.15,Wunderground v.1.13,2013-06-10 19:50:00,
2013-06-10 16:00:00,80.8,62.1,29.88,WNW,302,1.0,2.0,53,0.00,,,0.15,Wunderground v.1.13,2013-06-10 20:00:00,
2013-06-10 16:10:00,81.1,64.4,29.87,WSW,247,1.0,2.0,57,0.00,,,0.15,Wunderground v.1.13,2013-06-10 20:10:00,
2013-06-10 16:20:00,81.5,61.1,29.87,WNW,288,0.0,1.0,50,0.00,,,0.15,Wunderground v.1.13,2013-06-10 20:20:00,
2013-06-10 16:30:00,81.5,62.7,29.86,SSW,209,1.0,1.0,53,0.00,,,0.15,Wunderground v.1.13,2013-06-10 20:30:00,
2013-06-10 16:40:00,81.9,64.1,29.86,NNE,32,0.0,1.0,55,0.00,,,0.15,Wunderground v.1.13,2013-06-10 20:40:00,
2013-06-10 16:50:00,80.6,62.4,29.86,NNE,17,0.0,1.0,54,0.00,,,0.15,Wunderground v.1.13,2013-06-10 20:50:00,
2013-06-10 17:00:00,81.0,64.3,29.85,West,265,0.0,1.0,57,0.00,,,0.15,Wunderground v.1.13,2013-06-10 21:00:00,
2013-06-10 17:10:00,82.1,59.9,29.85,WNW,303,0.0,4.0,47,0.00,,,0.15,Wunderground v.1.13,2013-06-10 21:10:00,
2013-06-10 17:20:00,82.3,63.5,29.85,West,273,0.0,1.0,53,0.00,,,0.15,Wunderground v.1.13,2013-06-10 21:20:00,
2013-06-10 17:30:00,82.7,64.4,29.85,West,263,0.0,1.0,54,0.00,,,0.15,Wunderground v.1.13,2013-06-10 21:30:00,
2013-06-10 17:40:00,82.7,64.4,29.85,North,355,0.0,1.0,54,0.00,,,0.15,Wunderground v.1.13,2013-06-10 21:40:00,
2013-06-10 17:50:00,82.7,61.0,29.85,WNW,282,0.0,1.0,48,0.00,,,0.15,Wunderground v.1.13,2013-06-10 21:50:00,
2013-06-10 18:00:00,82.1,63.3,29.86,NNE,30,0.0,1.0,53,0.00,,,0.15,Wunderground v.1.13,2013-06-10 22:00:00,
2013-06-10 18:10:00,81.9,63.6,29.86,WNW,297,0.0,1.0,54,0.00,,,0.15,Wunderground v.1.13,2013-06-10 22:10:00,
2013-06-10 18:20:00,81.1,62.3,29.86,NW,304,0.0,1.0,53,0.00,,,0.15,Wunderground v.1.13,2013-06-10 22:20:00,
2013-06-10 18:30:00,80.4,62.8,29.86,WNW,302,0.0,1.0,55,0.00,,,0.15,Wunderground v.1.13,2013-06-10 22:30:00,
2013-06-10 18:40:00,80.0,64.4,29.85,WNW,302,0.0,1.0,59,0.00,,,0.15,Wunderground v.1.13,2013-06-10 22:40:00,
2013-06-10 18:50:00,79.7,62.1,29.85,SW,231,0.0,1.0,55,0.00,,,0.15,Wunderground v.1.13,2013-06-10 22:50:00,
2013-06-10 19:00:00,78.9,64.8,29.84,WNW,303,0.0,1.0,62,0.00,,,0.15,Wunderground v.1.13,2013-06-10 23:00:00,
2013-06-10 19:10:00,78.0,64.8,29.83,NNW,331,0.0,1.0,64,0.00,,,0.15,Wunderground v.1.13,2013-06-10 23:10:00,
2013-06-10 19:20:00,77.1,63.1,29.83,NNW,331,0.0,1.0,62,0.00,,,0.15,Wunderground v.1.13,2013-06-10 23:20:00,
2013-06-10 19:30:00,76.9,62.9,29.84,West,272,0.0,1.0,62,0.00,,,0.15,Wunderground v.1.13,2013-06-10 23:30:00,
2013-06-10 19:40:00,76.7,62.7,29.85,NNW,333,0.0,0.0,62,0.00,,,0.15,Wunderground v.1.13,2013-06-10 23:40:00,
2013-06-10 19:50:00,76.4,62.9,29.85,NNW,333,0.0,0.0,63,0.00,,,0.15,Wunderground v.1.13,2013-06-10 23:50:00,
2013-06-10 20:00:00,76.2,62.7,29.85,NNE,23,0.0,0.0,63,0.00,,,0.15,Wunderground v.1.13,2013-06-11 00:00:00,
2013-06-10 20:10:00,76.2,63.6,29.85,NNE,23,0.0,4.0,65,0.00,,,0.15,Wunderground v.1.13,2013-06-11 00:10:00,
2013-06-10 20:20:00,76.0,63.8,29.85,NNE,23,0.0,4.0,66,0.00,,,0.15,Wunderground v.1.13,2013-06-11 00:20:00,
2013-06-10 20:30:00,75.7,65.2,29.85,NNE,23,0.0,4.0,70,0.00,,,0.15,Wunderground v.1.13,2013-06-11 00:30:00,
2013-06-10 20:40:00,74.6,65.4,29.85,NNE,23,0.0,4.0,73,0.00,,,0.15,Wunderground v.1.13,2013-06-11 00:40:00,
2013-06-10 20:50:00,73.6,65.6,29.85,NNE,23,0.0,4.0,76,0.00,,,0.15,Wunderground v.1.13,2013-06-11 00:50:00,
2013-06-10 21:00:00,72.4,65.5,29.86,NNE,23,0.0,4.0,79,0.00,,,0.15,Wunderground v.1.13,2013-06-11 01:00:00,
2013-06-10 21:10:00,71.5,66.1,29.85,NNE,23,0.0,4.0,83,0.00,,,0.15,Wunderground v.1.13,2013-06-11 01:10:00,
2013-06-10 21:20:00,70.8,65.7,29.85,NNE,23,0.0,4.0,84,0.00,,,0.15,Wunderground v.1.13,2013-06-11 01:20:00,
2013-06-10 21:30:00,70.3,65.9,29.86,NNE,23,0.0,4.0,86,0.00,,,0.15,Wunderground v.1.13,2013-06-11 01:30:00,
2013-06-10 21:40:00,69.8,66.1,29.85,NNE,23,0.0,4.0,88,0.00,,,0.15,Wunderground v.1.13,2013-06-11 01:40:00,
2013-06-10 21:50:00,69.7,66.3,29.85,NNE,23,0.0,4.0,89,0.00,,,0.15,Wunderground v.1.13,2013-06-11 01:50:00,
2013-06-10 22:00:00,69.7,66.3,29.86,NNE,23,0.0,4.0,89,0.00,,,0.15,Wunderground v.1.13,2013-06-11 02:00:00,
2013-06-10 22:10:00,69.7,66.3,29.86,NNE,23,0.0,4.0,89,0.00,,,0.15,Wunderground v.1.13,2013-06-11 02:10:00,
2013-06-10 22:20:00,69.7,66.3,29.86,NNE,23,0.0,4.0,89,0.00,,,0.15,Wunderground v.1.13,2013-06-11 02:20:00,
2013-06-10 22:30:00,69.7,66.6,29.86,NNE,23,0.0,4.0,90,0.00,,,0.15,Wunderground v.1.13,2013-06-11 02:30:00,
2013-06-10 22:40:00,69.7,66.6,29.86,NNE,23,0.0,4.0,90,0.00,,,0.15,Wunderground v.1.13,2013-06-11 02:40:00,
2013-06-10 22:50:00,69.7,67.0,29.86,NNE,23,0.0,4.0,91,0.00,,,0.15,Wunderground v.1.13,2013-06-11 02:50:00,
2013-06-10 23:00:00,69.5,66.8,29.88,NNE,23,0.0,4.0,91,0.17,,,0.18,Wunderground v.1.13,2013-06-11 03:00:00,
2013-06-10 23:10:00,68.8,66.4,29.89,SE,132,0.0,4.0,92,0.14,,,0.22,Wunderground v.1.13,2013-06-11 03:10:00,
2013-06-10 23:20:00,68.5,66.7,29.89,ESE,116,0.0,4.0,94,0.39,,,0.28,Wunderground v.1.13,2013-06-11 03:20:00,
2013-06-10 23:30:00,68.3,66.8,29.90,WSW,248,0.0,4.0,95,0.67,,,0.33,Wunderground v.1.13,2013-06-11 03:30:00,
2013-06-10 23:40:00,68.2,67.0,29.89,SW,234,0.0,4.0,96,0.06,,,0.34,Wunderground v.1.13,2013-06-11 03:40:00,
2013-06-10 23:50:00,68.0,66.8,29.89,SW,234,0.0,4.0,96,0.00,,,0.34,Wunderground v.1.13,2013-06-11 03:50:00,